sensor_id;sensor_type;location;lat;lon;timestamp;temperature;humidity
51579;DHT22;47998;53.242;6.386;2023-05-07T00:00:01;12.00;99.90
51579;DHT22;47998;53.242;6.386;2023-05-07T00:02:27;11.90;99.90
51579;DHT22;47998;53.242;6.386;2023-05-07T00:04:53;11.90;99.90
51579;DHT22;47998;53.242;6.386;2023-05-07T00:07:19;11.90;99.90
51579;DHT22;47998;53.242;6.386;2023-05-07T00:09:44;11.90;99.90
51579;DHT22;47998;53.242;6.386;2023-05-07T00:12:10;11.80;99.90
51579;DHT22;47998;53.242;6.386;2023-05-07T00:14:36;11.80;99.90
51579;DHT22;47998;53.242;6.386;2023-05-07T00:17:01;11.70;99.90
51579;DHT22;47998;53.242;6.386;2023-05-07T00:19:27;11.70;99.90
51579;DHT22;47998;53.242;6.386;2023-05-07T00:21:53;11.70;99.90
51579;DHT22;47998;53.242;6.386;2023-05-07T00:24:19;11.60;99.90
51579;DHT22;47998;53.242;6.386;2023-05-07T00:26:45;11.60;99.90
51579;DHT22;47998;53.242;6.386;2023-05-07T00:29:11;11.60;99.90
51579;DHT22;47998;53.242;6.386;2023-05-07T00:31:36;11.50;99.90
51579;DHT22;47998;53.242;6.386;2023-05-07T00:34:02;11.50;99.90
51579;DHT22;47998;53.242;6.386;2023-05-07T00:36:28;11.50;99.90
51579;DHT22;47998;53.242;6.386;2023-05-07T00:38:56;11.40;99.90
51579;DHT22;47998;53.242;6.386;2023-05-07T00:41:22;11.40;99.90
51579;DHT22;47998;53.242;6.386;2023-05-07T00:43:48;11.40;99.90
51579;DHT22;47998;53.242;6.386;2023-05-07T00:46:14;11.30;99.90
51579;DHT22;47998;53.242;6.386;2023-05-07T00:48:41;11.30;99.90
51579;DHT22;47998;53.242;6.386;2023-05-07T00:51:07;11.20;99.90
51579;DHT22;47998;53.242;6.386;2023-05-07T00:53:32;11.20;99.90
51579;DHT22;47998;53.242;6.386;2023-05-07T00:55:58;11.20;99.90
51579;DHT22;47998;53.242;6.386;2023-05-07T00:58:26;11.20;99.90
51579;DHT22;47998;53.242;6.386;2023-05-07T01:00:52;11.10;99.90
51579;DHT22;47998;53.242;6.386;2023-05-07T01:03:17;11.10;99.90
51579;DHT22;47998;53.242;6.386;2023-05-07T01:05:45;11.10;99.90
51579;DHT22;47998;53.242;6.386;2023-05-07T01:08:12;11.10;99.90
51579;DHT22;47998;53.242;6.386;2023-05-07T01:10:38;11.10;99.90
51579;DHT22;47998;53.242;6.386;2023-05-07T01:13:11;11.00;99.90
51579;DHT22;47998;53.242;6.386;2023-05-07T01:15:38;11.00;99.90
51579;DHT22;47998;53.242;6.386;2023-05-07T01:18:04;11.00;99.90
51579;DHT22;47998;53.242;6.386;2023-05-07T01:20:30;11.00;99.90
51579;DHT22;47998;53.242;6.386;2023-05-07T01:22:57;11.00;99.90
51579;DHT22;47998;53.242;6.386;2023-05-07T01:25:23;11.00;99.90
51579;DHT22;47998;53.242;6.386;2023-05-07T01:27:49;11.00;99.90
51579;DHT22;47998;53.242;6.386;2023-05-07T01:30:16;11.00;99.90
51579;DHT22;47998;53.242;6.386;2023-05-07T01:35:12;11.00;99.90
51579;DHT22;47998;53.242;6.386;2023-05-07T01:37:39;11.00;99.90
51579;DHT22;47998;53.242;6.386;2023-05-07T01:40:06;11.00;99.90
51579;DHT22;47998;53.242;6.386;2023-05-07T01:42:32;11.00;99.90
51579;DHT22;47998;53.242;6.386;2023-05-07T01:44:59;11.00;99.90
51579;DHT22;47998;53.242;6.386;2023-05-07T01:47:25;11.00;99.90
51579;DHT22;47998;53.242;6.386;2023-05-07T01:49:52;11.00;99.90
51579;DHT22;47998;53.242;6.386;2023-05-07T01:52:17;10.90;99.90
51579;DHT22;47998;53.242;6.386;2023-05-07T01:54:43;10.90;99.90
51579;DHT22;47998;53.242;6.386;2023-05-07T01:57:09;10.90;99.90
51579;DHT22;47998;53.242;6.386;2023-05-07T01:59:35;10.90;99.90
51579;DHT22;47998;53.242;6.386;2023-05-07T02:02:01;10.90;99.90
51579;DHT22;47998;53.242;6.386;2023-05-07T02:04:26;10.90;99.90
51579;DHT22;47998;53.242;6.386;2023-05-07T02:06:52;10.90;99.90
51579;DHT22;47998;53.242;6.386;2023-05-07T02:09:18;10.90;99.90
51579;DHT22;47998;53.242;6.386;2023-05-07T02:11:44;10.90;99.90
51579;DHT22;47998;53.242;6.386;2023-05-07T02:14:10;10.90;99.90
51579;DHT22;47998;53.242;6.386;2023-05-07T02:16:36;10.90;99.90
51579;DHT22;47998;53.242;6.386;2023-05-07T02:19:02;10.80;99.90
51579;DHT22;47998;53.242;6.386;2023-05-07T02:21:27;10.80;99.90
51579;DHT22;47998;53.242;6.386;2023-05-07T02:23:53;10.80;99.90
51579;DHT22;47998;53.242;6.386;2023-05-07T02:26:19;10.80;99.90
51579;DHT22;47998;53.242;6.386;2023-05-07T02:28:46;10.80;99.90
51579;DHT22;47998;53.242;6.386;2023-05-07T02:31:12;10.70;99.90
51579;DHT22;47998;53.242;6.386;2023-05-07T02:33:38;10.70;99.90
51579;DHT22;47998;53.242;6.386;2023-05-07T02:36:08;10.70;99.90
51579;DHT22;47998;53.242;6.386;2023-05-07T02:38:35;10.70;99.90
51579;DHT22;47998;53.242;6.386;2023-05-07T02:41:00;10.70;99.90
51579;DHT22;47998;53.242;6.386;2023-05-07T02:43:26;10.70;99.90
51579;DHT22;47998;53.242;6.386;2023-05-07T02:46:05;10.70;99.90
51579;DHT22;47998;53.242;6.386;2023-05-07T02:48:31;10.70;99.90
51579;DHT22;47998;53.242;6.386;2023-05-07T02:50:58;10.70;99.90
51579;DHT22;47998;53.242;6.386;2023-05-07T02:53:24;10.70;99.90
51579;DHT22;47998;53.242;6.386;2023-05-07T02:55:55;10.70;99.90
51579;DHT22;47998;53.242;6.386;2023-05-07T02:58:21;10.70;99.90
51579;DHT22;47998;53.242;6.386;2023-05-07T03:00:47;10.70;99.90
51579;DHT22;47998;53.242;6.386;2023-05-07T03:03:13;10.60;99.90
51579;DHT22;47998;53.242;6.386;2023-05-07T03:05:39;10.60;99.90
51579;DHT22;47998;53.242;6.386;2023-05-07T03:08:04;10.60;99.90
51579;DHT22;47998;53.242;6.386;2023-05-07T03:10:30;10.60;99.90
51579;DHT22;47998;53.242;6.386;2023-05-07T03:12:56;10.60;99.90
51579;DHT22;47998;53.242;6.386;2023-05-07T03:15:22;10.50;99.90
51579;DHT22;47998;53.242;6.386;2023-05-07T03:17:48;10.60;99.90
51579;DHT22;47998;53.242;6.386;2023-05-07T03:20:14;10.60;99.90
51579;DHT22;47998;53.242;6.386;2023-05-07T03:22:39;10.60;99.90
51579;DHT22;47998;53.242;6.386;2023-05-07T03:25:06;10.60;99.90
51579;DHT22;47998;53.242;6.386;2023-05-07T03:27:32;10.60;99.90
51579;DHT22;47998;53.242;6.386;2023-05-07T03:29:57;10.60;99.90
51579;DHT22;47998;53.242;6.386;2023-05-07T03:32:23;10.60;99.90
51579;DHT22;47998;53.242;6.386;2023-05-07T03:34:49;10.60;99.90
51579;DHT22;47998;53.242;6.386;2023-05-07T03:37:14;10.50;99.90
51579;DHT22;47998;53.242;6.386;2023-05-07T03:39:40;10.60;99.90
51579;DHT22;47998;53.242;6.386;2023-05-07T03:42:06;10.50;99.90
51579;DHT22;47998;53.242;6.386;2023-05-07T03:44:32;10.60;99.90
51579;DHT22;47998;53.242;6.386;2023-05-07T03:46:57;10.50;99.90
51579;DHT22;47998;53.242;6.386;2023-05-07T03:49:23;10.50;99.90
51579;DHT22;47998;53.242;6.386;2023-05-07T03:51:49;10.60;99.90
51579;DHT22;47998;53.242;6.386;2023-05-07T03:54:14;10.50;99.90
51579;DHT22;47998;53.242;6.386;2023-05-07T03:56:40;10.50;99.90
51579;DHT22;47998;53.242;6.386;2023-05-07T03:59:06;10.50;99.90
51579;DHT22;47998;53.242;6.386;2023-05-07T04:01:31;10.50;99.90
51579;DHT22;47998;53.242;6.386;2023-05-07T04:03:57;10.60;99.90
51579;DHT22;47998;53.242;6.386;2023-05-07T04:06:23;10.60;99.90
51579;DHT22;47998;53.242;6.386;2023-05-07T04:08:48;10.60;99.90
51579;DHT22;47998;53.242;6.386;2023-05-07T04:11:14;10.50;99.90
51579;DHT22;47998;53.242;6.386;2023-05-07T04:13:40;10.60;99.90
51579;DHT22;47998;53.242;6.386;2023-05-07T04:16:06;10.60;99.90
51579;DHT22;47998;53.242;6.386;2023-05-07T04:18:32;10.60;99.90
51579;DHT22;47998;53.242;6.386;2023-05-07T04:20:57;10.50;99.90
51579;DHT22;47998;53.242;6.386;2023-05-07T04:23:23;10.50;99.90
51579;DHT22;47998;53.242;6.386;2023-05-07T04:25:49;10.50;99.90
51579;DHT22;47998;53.242;6.386;2023-05-07T04:28:15;10.50;99.90
51579;DHT22;47998;53.242;6.386;2023-05-07T04:30:41;10.50;99.90
51579;DHT22;47998;53.242;6.386;2023-05-07T04:33:07;10.50;99.90
51579;DHT22;47998;53.242;6.386;2023-05-07T04:35:33;10.40;99.90
51579;DHT22;47998;53.242;6.386;2023-05-07T04:37:58;10.50;99.90
51579;DHT22;47998;53.242;6.386;2023-05-07T04:40:24;10.40;99.90
51579;DHT22;47998;53.242;6.386;2023-05-07T04:42:50;10.50;99.90
51579;DHT22;47998;53.242;6.386;2023-05-07T04:45:16;10.40;99.90
51579;DHT22;47998;53.242;6.386;2023-05-07T04:47:42;10.40;99.90
51579;DHT22;47998;53.242;6.386;2023-05-07T04:50:08;10.40;99.90
51579;DHT22;47998;53.242;6.386;2023-05-07T04:52:34;10.50;99.90
51579;DHT22;47998;53.242;6.386;2023-05-07T04:55:00;10.40;99.90
51579;DHT22;47998;53.242;6.386;2023-05-07T04:57:26;10.40;99.90
51579;DHT22;47998;53.242;6.386;2023-05-07T04:59:53;10.50;99.90
51579;DHT22;47998;53.242;6.386;2023-05-07T05:02:18;10.50;99.90
51579;DHT22;47998;53.242;6.386;2023-05-07T05:04:45;10.50;99.90
51579;DHT22;47998;53.242;6.386;2023-05-07T05:07:10;10.50;99.90
51579;DHT22;47998;53.242;6.386;2023-05-07T05:09:36;10.50;99.90
51579;DHT22;47998;53.242;6.386;2023-05-07T05:12:02;10.50;99.90
51579;DHT22;47998;53.242;6.386;2023-05-07T05:14:29;10.60;99.90
51579;DHT22;47998;53.242;6.386;2023-05-07T05:16:55;10.60;99.90
51579;DHT22;47998;53.242;6.386;2023-05-07T05:19:21;10.50;99.90
51579;DHT22;47998;53.242;6.386;2023-05-07T05:21:46;10.50;99.90
51579;DHT22;47998;53.242;6.386;2023-05-07T05:24:12;10.50;99.90
51579;DHT22;47998;53.242;6.386;2023-05-07T05:26:38;10.50;99.90
51579;DHT22;47998;53.242;6.386;2023-05-07T05:29:03;10.50;99.90
51579;DHT22;47998;53.242;6.386;2023-05-07T05:31:29;10.50;99.90
51579;DHT22;47998;53.242;6.386;2023-05-07T05:33:55;10.50;99.90
51579;DHT22;47998;53.242;6.386;2023-05-07T05:36:21;10.50;99.90
51579;DHT22;47998;53.242;6.386;2023-05-07T05:38:46;10.50;99.90
51579;DHT22;47998;53.242;6.386;2023-05-07T05:41:12;10.50;99.90
51579;DHT22;47998;53.242;6.386;2023-05-07T05:43:38;10.50;99.90
51579;DHT22;47998;53.242;6.386;2023-05-07T05:46:03;10.60;99.90
51579;DHT22;47998;53.242;6.386;2023-05-07T05:48:33;10.60;99.90
51579;DHT22;47998;53.242;6.386;2023-05-07T05:50:59;10.60;99.90
51579;DHT22;47998;53.242;6.386;2023-05-07T05:53:25;10.70;99.90
51579;DHT22;47998;53.242;6.386;2023-05-07T05:55:51;10.70;99.90
51579;DHT22;47998;53.242;6.386;2023-05-07T05:58:16;10.60;99.90
51579;DHT22;47998;53.242;6.386;2023-05-07T06:00:42;10.70;99.90
51579;DHT22;47998;53.242;6.386;2023-05-07T06:03:08;10.80;99.90
51579;DHT22;47998;53.242;6.386;2023-05-07T06:05:34;10.80;99.90
51579;DHT22;47998;53.242;6.386;2023-05-07T06:07:59;10.80;99.90
51579;DHT22;47998;53.242;6.386;2023-05-07T06:10:25;10.80;99.90
51579;DHT22;47998;53.242;6.386;2023-05-07T06:12:52;10.80;99.90
51579;DHT22;47998;53.242;6.386;2023-05-07T06:15:18;10.80;99.90
51579;DHT22;47998;53.242;6.386;2023-05-07T06:17:43;10.90;99.90
51579;DHT22;47998;53.242;6.386;2023-05-07T06:20:09;10.90;99.90
51579;DHT22;47998;53.242;6.386;2023-05-07T06:22:35;11.00;99.90
51579;DHT22;47998;53.242;6.386;2023-05-07T06:25:01;11.00;99.90
51579;DHT22;47998;53.242;6.386;2023-05-07T06:27:27;11.10;99.90
51579;DHT22;47998;53.242;6.386;2023-05-07T06:29:53;11.20;99.90
51579;DHT22;47998;53.242;6.386;2023-05-07T06:32:19;11.20;99.90
51579;DHT22;47998;53.242;6.386;2023-05-07T06:34:44;11.30;99.90
51579;DHT22;47998;53.242;6.386;2023-05-07T06:37:10;11.40;99.90
51579;DHT22;47998;53.242;6.386;2023-05-07T06:39:36;11.40;99.90
51579;DHT22;47998;53.242;6.386;2023-05-07T06:42:02;11.40;99.90
51579;DHT22;47998;53.242;6.386;2023-05-07T06:44:28;11.40;99.90
51579;DHT22;47998;53.242;6.386;2023-05-07T06:46:53;11.40;99.90
51579;DHT22;47998;53.242;6.386;2023-05-07T06:49:19;11.40;99.90
51579;DHT22;47998;53.242;6.386;2023-05-07T06:51:45;11.50;99.90
51579;DHT22;47998;53.242;6.386;2023-05-07T06:54:11;11.50;99.90
51579;DHT22;47998;53.242;6.386;2023-05-07T06:56:36;11.50;99.90
51579;DHT22;47998;53.242;6.386;2023-05-07T06:59:03;11.50;99.90
51579;DHT22;47998;53.242;6.386;2023-05-07T07:01:29;11.50;99.90
51579;DHT22;47998;53.242;6.386;2023-05-07T07:03:54;11.50;99.90
51579;DHT22;47998;53.242;6.386;2023-05-07T07:06:20;11.60;99.90
51579;DHT22;47998;53.242;6.386;2023-05-07T07:08:46;11.60;99.90
51579;DHT22;47998;53.242;6.386;2023-05-07T07:11:12;11.60;99.90
51579;DHT22;47998;53.242;6.386;2023-05-07T07:13:37;11.60;99.90
51579;DHT22;47998;53.242;6.386;2023-05-07T07:16:03;11.60;99.90
51579;DHT22;47998;53.242;6.386;2023-05-07T07:18:29;11.60;99.90
51579;DHT22;47998;53.242;6.386;2023-05-07T07:20:55;11.50;99.90
51579;DHT22;47998;53.242;6.386;2023-05-07T07:23:21;11.50;99.90
51579;DHT22;47998;53.242;6.386;2023-05-07T07:25:46;11.50;99.90
51579;DHT22;47998;53.242;6.386;2023-05-07T07:28:12;11.40;99.90
51579;DHT22;47998;53.242;6.386;2023-05-07T07:30:38;11.40;99.90
51579;DHT22;47998;53.242;6.386;2023-05-07T07:33:04;11.40;99.90
51579;DHT22;47998;53.242;6.386;2023-05-07T07:35:33;11.30;99.90
51579;DHT22;47998;53.242;6.386;2023-05-07T07:37:59;11.30;99.90
51579;DHT22;47998;53.242;6.386;2023-05-07T07:40:25;11.30;99.90
51579;DHT22;47998;53.242;6.386;2023-05-07T07:42:52;11.20;99.90
51579;DHT22;47998;53.242;6.386;2023-05-07T07:45:18;11.20;99.90
51579;DHT22;47998;53.242;6.386;2023-05-07T07:47:44;11.20;99.90
51579;DHT22;47998;53.242;6.386;2023-05-07T07:50:10;11.30;99.90
51579;DHT22;47998;53.242;6.386;2023-05-07T07:52:36;11.20;99.90
51579;DHT22;47998;53.242;6.386;2023-05-07T07:55:02;11.20;99.90
51579;DHT22;47998;53.242;6.386;2023-05-07T07:57:28;11.30;99.90
51579;DHT22;47998;53.242;6.386;2023-05-07T07:59:53;11.30;99.90
51579;DHT22;47998;53.242;6.386;2023-05-07T08:02:19;11.40;99.90
51579;DHT22;47998;53.242;6.386;2023-05-07T08:04:45;11.40;99.90
51579;DHT22;47998;53.242;6.386;2023-05-07T08:07:11;11.50;99.90
51579;DHT22;47998;53.242;6.386;2023-05-07T08:09:38;11.60;99.90
51579;DHT22;47998;53.242;6.386;2023-05-07T08:12:04;11.80;99.90
51579;DHT22;47998;53.242;6.386;2023-05-07T08:14:30;11.90;99.90
51579;DHT22;47998;53.242;6.386;2023-05-07T08:16:56;12.00;99.90
51579;DHT22;47998;53.242;6.386;2023-05-07T08:19:21;12.20;99.90
51579;DHT22;47998;53.242;6.386;2023-05-07T08:21:48;12.40;99.90
51579;DHT22;47998;53.242;6.386;2023-05-07T08:24:14;12.70;99.90
51579;DHT22;47998;53.242;6.386;2023-05-07T08:26:41;13.00;99.90
51579;DHT22;47998;53.242;6.386;2023-05-07T08:29:07;13.30;99.90
51579;DHT22;47998;53.242;6.386;2023-05-07T08:31:33;13.40;99.90
51579;DHT22;47998;53.242;6.386;2023-05-07T08:33:59;13.60;99.90
51579;DHT22;47998;53.242;6.386;2023-05-07T08:36:25;13.80;99.90
51579;DHT22;47998;53.242;6.386;2023-05-07T08:38:51;13.90;99.90
51579;DHT22;47998;53.242;6.386;2023-05-07T08:41:18;14.00;99.90
51579;DHT22;47998;53.242;6.386;2023-05-07T08:43:47;14.00;99.90
51579;DHT22;47998;53.242;6.386;2023-05-07T08:46:17;14.10;99.90
51579;DHT22;47998;53.242;6.386;2023-05-07T08:48:44;13.90;99.90
51579;DHT22;47998;53.242;6.386;2023-05-07T08:51:12;14.00;99.90
51579;DHT22;47998;53.242;6.386;2023-05-07T08:53:41;14.10;99.90
51579;DHT22;47998;53.242;6.386;2023-05-07T08:56:08;14.10;99.90
51579;DHT22;47998;53.242;6.386;2023-05-07T08:58:34;14.10;99.90
51579;DHT22;47998;53.242;6.386;2023-05-07T09:01:06;14.20;99.90
51579;DHT22;47998;53.242;6.386;2023-05-07T09:03:33;14.20;99.90
51579;DHT22;47998;53.242;6.386;2023-05-07T09:05:59;14.30;99.90
51579;DHT22;47998;53.242;6.386;2023-05-07T09:08:28;14.30;99.90
51579;DHT22;47998;53.242;6.386;2023-05-07T09:10:54;14.30;99.90
51579;DHT22;47998;53.242;6.386;2023-05-07T09:13:20;14.40;99.90
51579;DHT22;47998;53.242;6.386;2023-05-07T09:15:45;14.60;99.90
51579;DHT22;47998;53.242;6.386;2023-05-07T09:18:12;14.90;99.90
51579;DHT22;47998;53.242;6.386;2023-05-07T09:20:39;15.00;99.90
51579;DHT22;47998;53.242;6.386;2023-05-07T09:23:06;15.20;77.50
51579;DHT22;47998;53.242;6.386;2023-05-07T09:25:33;15.40;99.90
51579;DHT22;47998;53.242;6.386;2023-05-07T09:28:00;15.40;1.00
51579;DHT22;47998;53.242;6.386;2023-05-07T09:30:33;15.50;1.00
51579;DHT22;47998;53.242;6.386;2023-05-07T09:33:00;15.50;1.00
51579;DHT22;47998;53.242;6.386;2023-05-07T09:35:26;15.70;1.00
51579;DHT22;47998;53.242;6.386;2023-05-07T09:37:53;15.70;1.00
51579;DHT22;47998;53.242;6.386;2023-05-07T09:40:24;15.80;1.00
51579;DHT22;47998;53.242;6.386;2023-05-07T09:42:50;15.80;99.90
51579;DHT22;47998;53.242;6.386;2023-05-07T09:45:30;16.00;99.90
51579;DHT22;47998;53.242;6.386;2023-05-07T09:47:57;16.10;99.90
51579;DHT22;47998;53.242;6.386;2023-05-07T09:50:28;16.10;99.90
51579;DHT22;47998;53.242;6.386;2023-05-07T09:52:55;16.20;99.90
51579;DHT22;47998;53.242;6.386;2023-05-07T09:55:22;16.50;99.90
51579;DHT22;47998;53.242;6.386;2023-05-07T09:57:51;16.80;99.90
51579;DHT22;47998;53.242;6.386;2023-05-07T10:00:19;17.20;99.90
51579;DHT22;47998;53.242;6.386;2023-05-07T10:02:51;17.40;99.90
51579;DHT22;47998;53.242;6.386;2023-05-07T10:05:21;17.60;1.00
51579;DHT22;47998;53.242;6.386;2023-05-07T10:07:48;17.60;99.90
51579;DHT22;47998;53.242;6.386;2023-05-07T10:10:14;17.70;99.90
51579;DHT22;47998;53.242;6.386;2023-05-07T10:12:41;17.90;99.90
51579;DHT22;47998;53.242;6.386;2023-05-07T10:15:09;17.90;99.90
51579;DHT22;47998;53.242;6.386;2023-05-07T10:17:39;18.00;1.00
51579;DHT22;47998;53.242;6.386;2023-05-07T10:20:06;18.10;47.90
51579;DHT22;47998;53.242;6.386;2023-05-07T10:22:46;18.10;99.70
51579;DHT22;47998;53.242;6.386;2023-05-07T10:25:25;18.20;1.00
51579;DHT22;47998;53.242;6.386;2023-05-07T10:27:55;18.30;21.70
51579;DHT22;47998;53.242;6.386;2023-05-07T10:32:53;18.50;1.00
51579;DHT22;47998;53.242;6.386;2023-05-07T10:35:26;18.70;1.00
51579;DHT22;47998;53.242;6.386;2023-05-07T10:37:52;18.90;99.90
51579;DHT22;47998;53.242;6.386;2023-05-07T10:40:20;19.30;99.90
51579;DHT22;47998;53.242;6.386;2023-05-07T10:43:05;19.50;85.00
51579;DHT22;47998;53.242;6.386;2023-05-07T10:45:32;19.40;99.90
51579;DHT22;47998;53.242;6.386;2023-05-07T10:48:14;19.50;1.00
51579;DHT22;47998;53.242;6.386;2023-05-07T10:50:42;20.00;41.00
51579;DHT22;47998;53.242;6.386;2023-05-07T10:55:43;21.30;99.90
51579;DHT22;47998;53.242;6.386;2023-05-07T11:00:48;21.10;1.00
51579;DHT22;47998;53.242;6.386;2023-05-07T11:03:14;21.20;99.90
51579;DHT22;47998;53.242;6.386;2023-05-07T11:05:41;21.60;99.90
51579;DHT22;47998;53.242;6.386;2023-05-07T11:08:08;21.50;1.00
51579;DHT22;47998;53.242;6.386;2023-05-07T11:13:16;22.30;99.90
51579;DHT22;47998;53.242;6.386;2023-05-07T11:15:46;22.40;1.00
51579;DHT22;47998;53.242;6.386;2023-05-07T11:18:14;22.40;99.90
51579;DHT22;47998;53.242;6.386;2023-05-07T11:26:01;22.00;42.90
51579;DHT22;47998;53.242;6.386;2023-05-07T11:28:28;22.00;99.90
51579;DHT22;47998;53.242;6.386;2023-05-07T11:30:56;22.10;99.90
51579;DHT22;47998;53.242;6.386;2023-05-07T11:33:22;21.80;99.90
51579;DHT22;47998;53.242;6.386;2023-05-07T11:35:48;21.60;99.90
51579;DHT22;47998;53.242;6.386;2023-05-07T11:38:14;21.50;99.90
51579;DHT22;47998;53.242;6.386;2023-05-07T11:40:58;21.00;1.00
51579;DHT22;47998;53.242;6.386;2023-05-07T11:43:28;21.10;1.00
51579;DHT22;47998;53.242;6.386;2023-05-07T11:45:54;21.40;24.70
51579;DHT22;47998;53.242;6.386;2023-05-07T11:48:21;21.60;1.00
51579;DHT22;47998;53.242;6.386;2023-05-07T11:50:59;22.10;1.00
51579;DHT22;47998;53.242;6.386;2023-05-07T11:53:26;22.50;99.90
51579;DHT22;47998;53.242;6.386;2023-05-07T11:55:55;22.90;99.90
51579;DHT22;47998;53.242;6.386;2023-05-07T11:58:23;23.20;99.90
51579;DHT22;47998;53.242;6.386;2023-05-07T12:00:50;23.60;4.90
51579;DHT22;47998;53.242;6.386;2023-05-07T12:03:16;23.30;1.00
51579;DHT22;47998;53.242;6.386;2023-05-07T12:05:43;23.10;1.00
51579;DHT22;47998;53.242;6.386;2023-05-07T12:08:14;23.00;17.60
51579;DHT22;47998;53.242;6.386;2023-05-07T12:10:45;23.10;1.00
51579;DHT22;47998;53.242;6.386;2023-05-07T12:13:18;23.20;1.00
51579;DHT22;47998;53.242;6.386;2023-05-07T12:15:44;22.80;1.00
51579;DHT22;47998;53.242;6.386;2023-05-07T12:18:13;22.70;80.80
51579;DHT22;47998;53.242;6.386;2023-05-07T12:20:39;22.70;9.50
51579;DHT22;47998;53.242;6.386;2023-05-07T12:23:05;22.50;53.00
51579;DHT22;47998;53.242;6.386;2023-05-07T12:25:35;22.30;13.20
51579;DHT22;47998;53.242;6.386;2023-05-07T12:28:02;22.60;99.90
51579;DHT22;47998;53.242;6.386;2023-05-07T12:30:39;22.90;90.90
51579;DHT22;47998;53.242;6.386;2023-05-07T12:33:05;23.60;99.90
51579;DHT22;47998;53.242;6.386;2023-05-07T12:35:32;24.50;1.00
51579;DHT22;47998;53.242;6.386;2023-05-07T12:38:01;24.50;1.00
51579;DHT22;47998;53.242;6.386;2023-05-07T12:40:41;24.70;1.00
51579;DHT22;47998;53.242;6.386;2023-05-07T12:43:07;24.40;99.90
51579;DHT22;47998;53.242;6.386;2023-05-07T12:45:41;23.80;1.00
51579;DHT22;47998;53.242;6.386;2023-05-07T12:48:07;23.50;1.00
51579;DHT22;47998;53.242;6.386;2023-05-07T12:50:34;23.20;1.00
51579;DHT22;47998;53.242;6.386;2023-05-07T12:53:00;22.80;1.00
51579;DHT22;47998;53.242;6.386;2023-05-07T12:55:31;22.50;1.00
51579;DHT22;47998;53.242;6.386;2023-05-07T12:58:01;22.30;1.00
51579;DHT22;47998;53.242;6.386;2023-05-07T13:00:37;22.40;47.90
51579;DHT22;47998;53.242;6.386;2023-05-07T13:03:03;22.70;1.00
51579;DHT22;47998;53.242;6.386;2023-05-07T13:05:29;22.90;99.90
51579;DHT22;47998;53.242;6.386;2023-05-07T13:07:56;23.10;91.80
51579;DHT22;47998;53.242;6.386;2023-05-07T13:10:23;23.50;1.00
51579;DHT22;47998;53.242;6.386;2023-05-07T13:12:49;24.10;1.00
51579;DHT22;47998;53.242;6.386;2023-05-07T13:15:15;24.30;1.00
51579;DHT22;47998;53.242;6.386;2023-05-07T13:17:41;24.50;1.00
51579;DHT22;47998;53.242;6.386;2023-05-07T13:20:08;24.40;99.90
51579;DHT22;47998;53.242;6.386;2023-05-07T13:22:34;24.50;99.90
51579;DHT22;47998;53.242;6.386;2023-05-07T13:25:00;24.10;99.90
51579;DHT22;47998;53.242;6.386;2023-05-07T13:27:25;24.20;1.00
51579;DHT22;47998;53.242;6.386;2023-05-07T13:29:52;24.10;1.00
51579;DHT22;47998;53.242;6.386;2023-05-07T13:32:18;23.80;99.90
51579;DHT22;47998;53.242;6.386;2023-05-07T13:34:44;23.60;1.00
51579;DHT22;47998;53.242;6.386;2023-05-07T13:37:10;23.90;1.00
51579;DHT22;47998;53.242;6.386;2023-05-07T13:39:36;24.00;1.00
51579;DHT22;47998;53.242;6.386;2023-05-07T13:42:02;23.60;1.00
51579;DHT22;47998;53.242;6.386;2023-05-07T13:44:28;23.60;31.40
51579;DHT22;47998;53.242;6.386;2023-05-07T13:46:53;23.10;1.00
51579;DHT22;47998;53.242;6.386;2023-05-07T13:49:19;23.00;67.00
51579;DHT22;47998;53.242;6.386;2023-05-07T13:51:45;22.90;84.90
51579;DHT22;47998;53.242;6.386;2023-05-07T13:54:10;22.50;1.00
51579;DHT22;47998;53.242;6.386;2023-05-07T13:56:37;22.30;63.10
51579;DHT22;47998;53.242;6.386;2023-05-07T13:59:02;22.20;99.90
51579;DHT22;47998;53.242;6.386;2023-05-07T14:01:28;22.60;1.00
51579;DHT22;47998;53.242;6.386;2023-05-07T14:03:55;23.20;1.00
51579;DHT22;47998;53.242;6.386;2023-05-07T14:06:21;23.40;99.90
51579;DHT22;47998;53.242;6.386;2023-05-07T14:08:47;23.60;75.80
51579;DHT22;47998;53.242;6.386;2023-05-07T14:11:13;23.30;58.70
51579;DHT22;47998;53.242;6.386;2023-05-07T14:13:38;23.30;99.90
51579;DHT22;47998;53.242;6.386;2023-05-07T14:16:04;23.30;99.90
51579;DHT22;47998;53.242;6.386;2023-05-07T14:18:30;23.20;98.30
51579;DHT22;47998;53.242;6.386;2023-05-07T14:20:56;22.70;54.70
51579;DHT22;47998;53.242;6.386;2023-05-07T14:23:21;22.40;99.90
51579;DHT22;47998;53.242;6.386;2023-05-07T14:25:52;22.30;99.90
51579;DHT22;47998;53.242;6.386;2023-05-07T14:28:18;22.40;99.90
51579;DHT22;47998;53.242;6.386;2023-05-07T14:30:44;22.70;99.90
51579;DHT22;47998;53.242;6.386;2023-05-07T14:33:10;22.40;99.90
51579;DHT22;47998;53.242;6.386;2023-05-07T14:35:36;22.50;99.90
51579;DHT22;47998;53.242;6.386;2023-05-07T14:38:02;22.60;99.90
51579;DHT22;47998;53.242;6.386;2023-05-07T14:40:27;22.60;99.90
51579;DHT22;47998;53.242;6.386;2023-05-07T14:42:53;22.70;99.90
51579;DHT22;47998;53.242;6.386;2023-05-07T14:45:21;22.70;99.90
51579;DHT22;47998;53.242;6.386;2023-05-07T14:47:46;22.70;99.90
51579;DHT22;47998;53.242;6.386;2023-05-07T14:50:12;23.30;99.90
51579;DHT22;47998;53.242;6.386;2023-05-07T14:52:38;23.80;88.40
51579;DHT22;47998;53.242;6.386;2023-05-07T14:55:04;23.90;1.00
51579;DHT22;47998;53.242;6.386;2023-05-07T14:57:30;24.10;99.90
51579;DHT22;47998;53.242;6.386;2023-05-07T15:00:03;24.20;1.00
51579;DHT22;47998;53.242;6.386;2023-05-07T15:02:30;24.30;99.90
51579;DHT22;47998;53.242;6.386;2023-05-07T15:04:55;24.40;1.00
51579;DHT22;47998;53.242;6.386;2023-05-07T15:07:22;24.20;99.90
51579;DHT22;47998;53.242;6.386;2023-05-07T15:09:47;24.10;99.90
51579;DHT22;47998;53.242;6.386;2023-05-07T15:12:13;24.00;99.90
51579;DHT22;47998;53.242;6.386;2023-05-07T15:14:39;23.80;1.00
51579;DHT22;47998;53.242;6.386;2023-05-07T15:17:05;24.20;1.00
51579;DHT22;47998;53.242;6.386;2023-05-07T15:19:31;24.20;1.00
51579;DHT22;47998;53.242;6.386;2023-05-07T15:21:58;24.30;1.00
51579;DHT22;47998;53.242;6.386;2023-05-07T15:24:31;24.10;1.00
51579;DHT22;47998;53.242;6.386;2023-05-07T15:26:56;24.40;1.00
51579;DHT22;47998;53.242;6.386;2023-05-07T15:29:23;24.60;1.00
51579;DHT22;47998;53.242;6.386;2023-05-07T15:31:50;24.60;99.90
51579;DHT22;47998;53.242;6.386;2023-05-07T15:34:17;24.40;99.90
51579;DHT22;47998;53.242;6.386;2023-05-07T15:36:43;24.40;99.90
51579;DHT22;47998;53.242;6.386;2023-05-07T15:39:08;24.10;99.90
51579;DHT22;47998;53.242;6.386;2023-05-07T15:41:35;24.30;99.90
51579;DHT22;47998;53.242;6.386;2023-05-07T15:44:02;24.20;99.90
51579;DHT22;47998;53.242;6.386;2023-05-07T15:46:28;24.40;1.00